createdAt,value
2023-05-19T00:02:56.861Z,13.45
2023-05-19T00:06:07.063Z,13.44
2023-05-19T00:09:16.829Z,13.42
2023-05-19T00:12:25.401Z,13.39
2023-05-19T00:15:33.829Z,13.40
2023-05-19T00:18:42.262Z,13.43
2023-05-19T00:21:50.786Z,13.43
2023-05-19T00:25:12.849Z,13.38
2023-05-19T00:28:29.138Z,13.34
2023-05-19T00:31:43.831Z,13.33
2023-05-19T00:34:58.858Z,13.30
2023-05-19T00:38:08.934Z,13.27
2023-05-19T00:41:18.584Z,13.24
2023-05-19T00:44:26.875Z,13.22
2023-05-19T00:47:41.832Z,13.22
2023-05-19T00:50:50.845Z,13.22
2023-05-19T00:53:59.534Z,13.23
2023-05-19T00:57:10.224Z,13.19
2023-05-19T01:00:21.609Z,13.15
2023-05-19T01:03:38.255Z,13.12
2023-05-19T01:06:40.458Z,13.14
2023-05-19T01:09:55.923Z,13.15
2023-05-19T01:13:11.858Z,13.15
2023-05-19T01:16:33.827Z,13.18
2023-05-19T01:20:21.863Z,13.18
2023-05-19T01:23:58.824Z,13.22
2023-05-19T01:27:30.898Z,13.23
2023-05-19T01:30:49.383Z,13.25
2023-05-19T01:33:53.226Z,13.28
2023-05-19T01:37:09.034Z,13.26
2023-05-19T01:40:11.495Z,13.22
2023-05-19T01:43:30.864Z,13.22
2023-05-19T01:46:32.511Z,13.20
2023-05-19T01:49:46.886Z,13.22
2023-05-19T01:52:48.661Z,13.24
2023-05-19T01:56:06.094Z,13.29
2023-05-19T01:59:23.842Z,13.27
2023-05-19T02:03:01.916Z,13.25
2023-05-19T02:06:23.060Z,13.24
2023-05-19T02:10:08.159Z,13.20
2023-05-19T02:13:19.981Z,13.22
2023-05-19T02:16:35.881Z,13.20
2023-05-19T02:19:46.084Z,13.21
2023-05-19T02:22:54.926Z,13.19
2023-05-19T02:26:17.919Z,13.19
2023-05-19T02:29:32.905Z,13.20
2023-05-19T02:32:41.892Z,13.22
2023-05-19T02:35:57.193Z,13.21
2023-05-19T02:39:14.919Z,13.22
2023-05-19T02:42:43.849Z,13.20
2023-05-19T02:45:53.710Z,13.15
2023-05-19T02:49:02.096Z,13.13
2023-05-19T02:52:16.917Z,13.09
2023-05-19T02:55:19.702Z,13.05
2023-05-19T02:58:37.778Z,13.02
2023-05-19T03:01:45.910Z,12.99
2023-05-19T03:04:54.883Z,12.97
2023-05-19T03:08:10.918Z,12.94
2023-05-19T03:11:18.907Z,12.90
2023-05-19T03:14:34.066Z,12.95
2023-05-19T03:17:36.052Z,12.95
2023-05-19T03:20:51.643Z,13.01
2023-05-19T03:24:12.938Z,13.04
2023-05-19T03:27:27.938Z,13.10
2023-05-19T03:30:44.199Z,13.12
2023-05-19T03:33:48.957Z,13.11
2023-05-19T03:37:03.989Z,13.09
2023-05-19T03:40:06.500Z,13.13
2023-05-19T03:43:20.918Z,13.15
2023-05-19T03:46:28.946Z,13.18
2023-05-19T03:49:44.024Z,13.20
2023-05-19T03:52:51.925Z,13.23
2023-05-19T03:56:00.681Z,13.26
2023-05-19T03:59:15.970Z,13.30
2023-05-19T04:02:17.638Z,13.28
2023-05-19T04:05:31.987Z,13.29
2023-05-19T04:08:33.764Z,13.20
2023-05-19T04:11:49.966Z,13.18
2023-05-19T04:15:05.630Z,13.17
2023-05-19T04:18:07.315Z,13.30
2023-05-19T04:21:22.055Z,13.36
2023-05-19T04:24:37.158Z,13.39
2023-05-19T04:27:44.945Z,13.49
2023-05-19T04:30:56.511Z,13.47
2023-05-19T04:34:10.947Z,13.49
2023-05-19T04:37:13.306Z,13.60
2023-05-19T04:40:27.941Z,13.68
2023-05-19T04:43:35.978Z,13.60
2023-05-19T04:46:44.667Z,13.68
2023-05-19T04:49:52.941Z,13.78
2023-05-19T04:53:08.030Z,13.81
2023-05-19T04:56:17.280Z,13.89
2023-05-19T04:59:25.502Z,13.96
2023-05-19T05:02:34.364Z,13.93
2023-05-19T05:05:43.471Z,13.97
2023-05-19T05:08:52.018Z,14.16
2023-05-19T05:12:11.094Z,14.14
2023-05-19T05:15:22.153Z,14.31
2023-05-19T05:18:37.028Z,14.44
2023-05-19T05:21:45.723Z,14.61
2023-05-19T05:25:01.375Z,14.77
2023-05-19T05:28:10.281Z,14.56
2023-05-19T05:31:18.555Z,14.65
2023-05-19T05:34:27.011Z,15.07
2023-05-19T05:37:45.296Z,15.33
2023-05-19T05:40:53.998Z,15.34
2023-05-19T05:44:02.880Z,15.56
2023-05-19T05:47:23.046Z,15.41
2023-05-19T05:50:32.080Z,15.30
2023-05-19T05:53:59.099Z,15.31
2023-05-19T05:57:16.102Z,15.37
2023-05-19T06:00:21.688Z,15.49
2023-05-19T06:03:36.011Z,15.35
2023-05-19T06:06:38.497Z,15.32
2023-05-19T06:09:53.009Z,15.38
2023-05-19T06:13:09.023Z,15.34
2023-05-19T06:16:24.075Z,15.55
2023-05-19T06:19:34.428Z,15.80
2023-05-19T06:22:45.213Z,16.22
2023-05-19T06:26:08.377Z,16.50
2023-05-19T06:29:27.221Z,16.76
2023-05-19T06:32:35.726Z,17.71
2023-05-19T06:35:44.033Z,17.47
2023-05-19T06:38:55.444Z,17.73
2023-05-19T06:42:04.325Z,17.47
2023-05-19T06:45:13.519Z,17.70
2023-05-19T06:48:54.852Z,17.52
2023-05-19T06:52:12.433Z,17.65
2023-05-19T06:55:15.366Z,17.80
2023-05-19T06:58:43.281Z,18.11
2023-05-19T07:01:57.809Z,18.50
2023-05-19T07:05:12.051Z,18.60
2023-05-19T07:08:29.657Z,18.60
2023-05-19T07:11:37.837Z,18.62
2023-05-19T07:15:06.039Z,18.53
2023-05-19T07:18:15.783Z,18.72
2023-05-19T07:21:34.032Z,18.85
2023-05-19T07:24:52.347Z,19.03
2023-05-19T07:35:14.483Z,18.95
2023-05-19T07:38:23.129Z,19.20
2023-05-19T07:41:34.218Z,19.16
2023-05-19T07:44:44.661Z,19.36
2023-05-19T07:48:01.050Z,19.25
2023-05-19T07:51:16.102Z,19.29
2023-05-19T07:54:26.175Z,19.37
2023-05-19T07:57:37.667Z,19.59
2023-05-19T08:00:58.338Z,19.86
2023-05-19T08:04:07.724Z,20.03
2023-05-19T08:07:18.129Z,20.42
2023-05-19T08:10:27.666Z,20.67
2023-05-19T08:13:36.104Z,20.49
2023-05-19T08:16:59.438Z,20.80
2023-05-19T08:20:16.165Z,20.66
2023-05-19T08:23:18.245Z,20.44
2023-05-19T08:26:36.906Z,20.49
2023-05-19T08:33:16.369Z,20.91
2023-05-19T08:36:18.626Z,20.87
2023-05-19T08:39:33.191Z,21.15
2023-05-19T08:42:41.982Z,21.26
2023-05-19T08:45:59.128Z,21.08
2023-05-19T08:49:07.773Z,20.88
2023-05-19T08:52:32.087Z,21.20
2023-05-19T08:56:02.133Z,21.29
2023-05-19T08:59:06.240Z,21.02
2023-05-19T09:02:24.664Z,20.98
2023-05-19T09:09:04.404Z,20.73
2023-05-19T09:12:24.388Z,20.87
2023-05-19T09:15:42.163Z,20.64
2023-05-19T09:19:05.172Z,20.41
2023-05-19T09:22:15.885Z,20.61
2023-05-19T09:25:27.134Z,20.21
2023-05-19T09:32:27.927Z,19.88
2023-05-19T09:35:36.202Z,20.17
2023-05-19T09:38:46.427Z,20.59
2023-05-19T09:42:02.194Z,22.05
2023-05-19T09:45:15.511Z,27.23
2023-05-19T09:48:28.319Z,26.35
2023-05-19T09:51:51.067Z,23.63
2023-05-19T09:55:19.917Z,27.53
2023-05-19T09:58:51.391Z,26.48
2023-05-19T10:01:55.122Z,23.71
2023-05-19T10:08:29.552Z,21.89
2023-05-19T10:15:03.585Z,26.70
2023-05-19T10:18:22.552Z,25.98
2023-05-19T10:21:31.192Z,25.34
2023-05-19T10:24:45.200Z,24.82
2023-05-19T10:28:00.207Z,24.86
2023-05-19T10:31:28.195Z,23.33
2023-05-19T10:35:19.279Z,22.64
2023-05-19T10:38:37.959Z,22.95
2023-05-19T10:42:09.256Z,22.33
2023-05-19T10:45:29.185Z,21.65
2023-05-19T10:48:44.246Z,23.50
2023-05-19T10:52:02.213Z,22.77
2023-05-19T10:55:13.877Z,22.16
2023-05-19T10:58:46.516Z,27.17
2023-05-19T11:02:02.533Z,25.56
2023-05-19T11:05:15.355Z,24.39
2023-05-19T11:12:08.449Z,28.67
2023-05-19T11:15:17.311Z,30.15
2023-05-19T11:18:27.249Z,30.57
2023-05-19T11:21:58.636Z,28.00
2023-05-19T11:25:07.343Z,25.31
2023-05-19T11:28:28.438Z,24.30
2023-05-19T11:31:44.304Z,24.02
2023-05-19T11:34:54.813Z,23.99
2023-05-19T11:38:10.197Z,23.60
2023-05-19T11:41:25.249Z,23.57
2023-05-19T11:44:34.289Z,24.09
2023-05-19T11:48:00.245Z,24.55
2023-05-19T11:51:17.226Z,24.41
2023-05-19T11:54:25.704Z,24.26
2023-05-19T11:57:33.733Z,24.14
2023-05-19T12:00:46.439Z,23.82
2023-05-19T12:04:01.578Z,23.58
2023-05-19T12:07:18.233Z,23.73
2023-05-19T12:10:28.394Z,23.18
2023-05-19T12:13:37.282Z,23.05
2023-05-19T12:16:53.370Z,22.95
2023-05-19T12:19:55.295Z,23.37
2023-05-19T12:23:11.386Z,23.54
2023-05-19T12:26:13.622Z,23.80
2023-05-19T12:29:28.308Z,23.32
2023-05-19T12:32:43.744Z,23.56
2023-05-19T12:35:54.295Z,24.01
2023-05-19T12:39:06.425Z,24.25
2023-05-19T12:42:15.262Z,24.20
2023-05-19T12:45:26.374Z,24.40
2023-05-19T12:48:41.568Z,23.75
2023-05-19T12:52:01.142Z,23.70
2023-05-19T12:55:18.581Z,23.98
2023-05-19T12:58:26.363Z,23.99
2023-05-19T13:01:43.350Z,24.30
2023-05-19T13:04:58.304Z,24.26
2023-05-19T13:08:08.606Z,24.83
2023-05-19T13:11:17.260Z,24.55
2023-05-19T13:14:25.863Z,24.30
2023-05-19T13:17:34.601Z,24.08
2023-05-19T13:20:44.583Z,24.45
2023-05-19T13:23:53.662Z,24.16
2023-05-19T13:27:08.303Z,24.22
2023-05-19T13:30:21.195Z,24.37
2023-05-19T13:33:36.330Z,24.48
2023-05-19T13:36:38.082Z,23.62
2023-05-19T13:39:52.496Z,23.69
2023-05-19T13:43:00.630Z,23.68
2023-05-19T13:46:15.420Z,24.21
2023-05-19T13:49:17.159Z,24.21
2023-05-19T13:52:33.346Z,23.82
2023-05-19T13:55:41.359Z,24.10
2023-05-19T13:58:50.093Z,24.69
2023-05-19T14:02:04.551Z,25.09
2023-05-19T14:05:13.311Z,24.65
2023-05-19T14:08:28.359Z,24.01
2023-05-19T14:11:36.868Z,23.47
2023-05-19T14:14:45.353Z,23.56
2023-05-19T14:18:00.363Z,24.25
2023-05-19T14:21:09.449Z,24.64
2023-05-19T14:24:24.337Z,24.80
2023-05-19T14:27:41.059Z,24.45
2023-05-19T14:30:55.350Z,24.01
2023-05-19T14:34:17.456Z,24.00
2023-05-19T14:37:19.856Z,23.97
2023-05-19T14:40:34.603Z,23.82
2023-05-19T14:43:36.478Z,23.36
2023-05-19T14:46:51.509Z,23.27
2023-05-19T14:50:00.771Z,23.40
2023-05-19T14:53:10.631Z,23.31
2023-05-19T14:56:22.558Z,23.52
2023-05-19T14:59:30.885Z,23.86
2023-05-19T15:02:39.452Z,23.56
2023-05-19T15:05:54.471Z,23.79
2023-05-19T15:09:02.663Z,23.52
2023-05-19T15:12:11.146Z,23.40
2023-05-19T15:15:19.328Z,23.74
2023-05-19T15:18:35.403Z,24.02
2023-05-19T15:21:45.786Z,24.40
2023-05-19T15:24:54.694Z,24.67
2023-05-19T15:28:19.613Z,24.27
2023-05-19T15:31:37.407Z,24.33
2023-05-19T15:34:46.841Z,24.03
2023-05-19T15:38:02.484Z,23.69
2023-05-19T15:41:13.438Z,23.67
2023-05-19T15:44:29.124Z,23.71
2023-05-19T15:47:36.958Z,23.62
2023-05-19T15:50:51.415Z,23.64
2023-05-19T15:53:53.425Z,23.61
2023-05-19T15:57:09.453Z,23.59
2023-05-19T16:00:18.426Z,23.59
2023-05-19T16:03:27.459Z,23.50
2023-05-19T16:06:42.429Z,23.48
2023-05-19T16:09:51.254Z,23.43
2023-05-19T16:12:59.401Z,23.29
2023-05-19T16:16:14.510Z,23.04
2023-05-19T16:19:24.343Z,23.02
2023-05-19T16:22:33.490Z,23.05
2023-05-19T16:25:48.462Z,22.92
2023-05-19T16:29:03.419Z,22.84
2023-05-19T16:32:12.900Z,22.78
2023-05-19T16:35:32.707Z,22.74
2023-05-19T16:38:48.461Z,22.75
2023-05-19T16:42:07.330Z,22.74
2023-05-19T16:45:22.477Z,22.58
2023-05-19T16:48:27.182Z,22.49
2023-05-19T16:51:41.485Z,22.37
2023-05-19T16:54:59.614Z,22.23
2023-05-19T16:58:02.488Z,22.11
2023-05-19T17:01:29.045Z,22.00
2023-05-19T17:04:31.073Z,21.95
2023-05-19T17:07:45.693Z,21.91
2023-05-19T17:11:01.542Z,21.85
2023-05-19T17:14:03.573Z,21.79
2023-05-19T17:17:18.429Z,21.70
2023-05-19T17:20:28.817Z,21.63
2023-05-19T17:23:43.571Z,21.55
2023-05-19T17:26:52.279Z,21.47
2023-05-19T17:30:07.725Z,21.39
2023-05-19T17:33:15.864Z,21.32
2023-05-19T17:36:49.493Z,21.24
2023-05-19T17:39:58.482Z,21.15
2023-05-19T17:43:06.983Z,21.08
2023-05-19T17:46:15.664Z,21.01
2023-05-19T17:49:30.681Z,21.00
2023-05-19T17:52:39.488Z,20.94
2023-05-19T17:55:58.507Z,20.90
2023-05-19T17:59:07.438Z,20.85
2023-05-19T18:02:16.249Z,20.76
2023-05-19T18:05:28.032Z,20.68
2023-05-19T18:08:43.521Z,20.65
2023-05-19T18:11:52.762Z,20.55
2023-05-19T18:15:01.280Z,20.52
2023-05-19T18:21:31.304Z,20.40
2023-05-19T18:24:47.024Z,20.32
2023-05-19T18:27:55.498Z,20.29
2023-05-19T18:31:17.606Z,20.25
2023-05-19T18:34:26.321Z,20.17
2023-05-19T18:37:41.490Z,20.11
2023-05-19T18:40:43.655Z,20.04
2023-05-19T18:43:59.568Z,19.97
2023-05-19T18:47:01.271Z,19.90
2023-05-19T18:50:16.657Z,19.87
2023-05-19T18:53:18.320Z,19.80
2023-05-19T18:56:34.502Z,19.73
2023-05-19T18:59:44.233Z,19.67
2023-05-19T19:02:52.520Z,19.60
2023-05-19T19:06:07.570Z,19.55
2023-05-19T19:09:10.273Z,19.50
2023-05-19T19:12:24.842Z,19.42
2023-05-19T19:15:45.220Z,19.33
2023-05-19T19:19:00.755Z,19.32
2023-05-19T19:22:09.808Z,19.27
2023-05-19T19:25:18.579Z,19.12
2023-05-19T19:28:36.194Z,19.22
2023-05-19T19:31:44.947Z,19.17
2023-05-19T19:35:06.530Z,19.14
2023-05-19T19:38:14.800Z,19.11
2023-05-19T19:41:29.589Z,19.07
2023-05-19T19:44:31.430Z,19.02
2023-05-19T19:47:46.913Z,18.98
2023-05-19T19:51:03.553Z,18.94
2023-05-19T19:54:11.977Z,18.89
2023-05-19T19:57:20.095Z,18.87
2023-05-19T20:03:57.728Z,18.83
2023-05-19T20:07:12.603Z,18.85
2023-05-19T20:10:16.542Z,18.87
2023-05-19T20:13:34.574Z,18.86
2023-05-19T20:16:36.444Z,18.86
2023-05-19T20:19:51.561Z,18.85
2023-05-19T20:22:59.694Z,18.83
2023-05-19T20:26:12.439Z,18.85
2023-05-19T20:29:21.840Z,18.84
2023-05-19T20:32:39.622Z,18.82
2023-05-19T20:35:54.553Z,18.80
2023-05-19T20:39:09.654Z,18.78
2023-05-19T20:42:24.583Z,18.75
2023-05-19T20:45:32.956Z,18.73
2023-05-19T20:48:42.177Z,18.62
2023-05-19T20:51:56.615Z,18.57
2023-05-19T20:54:59.639Z,18.53
2023-05-19T20:58:17.931Z,18.51
2023-05-19T21:01:32.669Z,18.50
2023-05-19T21:04:34.856Z,18.43
2023-05-19T21:07:49.629Z,18.40
2023-05-19T21:10:51.386Z,18.37
2023-05-19T21:14:17.923Z,18.26
2023-05-19T21:17:19.754Z,18.25
2023-05-19T21:20:34.869Z,18.21
2023-05-19T21:23:43.662Z,18.17
2023-05-19T21:26:52.090Z,18.14
2023-05-19T21:30:00.735Z,18.11
2023-05-19T21:33:16.272Z,18.08
2023-05-19T21:36:26.631Z,18.03
2023-05-19T21:39:41.634Z,18.00
2023-05-19T21:42:43.293Z,17.95
2023-05-19T21:45:57.654Z,17.92
2023-05-19T21:49:07.080Z,17.91
2023-05-19T21:52:17.958Z,17.91
2023-05-19T21:55:26.688Z,17.88
2023-05-19T21:58:43.614Z,17.86
2023-05-19T22:01:46.872Z,17.84
2023-05-19T22:05:16.663Z,17.81
2023-05-19T22:08:19.757Z,17.74
2023-05-19T22:11:34.641Z,17.68
2023-05-19T22:14:43.121Z,17.63
2023-05-19T22:17:51.728Z,17.59
2023-05-19T22:21:00.710Z,17.58
2023-05-19T22:24:08.655Z,17.55
2023-05-19T22:27:23.665Z,17.51
2023-05-19T22:30:37.661Z,17.48
2023-05-19T22:33:55.132Z,17.45
2023-05-19T22:37:09.828Z,17.42
2023-05-19T22:40:18.946Z,17.40
2023-05-19T22:43:27.101Z,17.37
2023-05-19T22:46:41.919Z,17.38
2023-05-19T22:49:43.752Z,17.34
2023-05-19T22:52:58.695Z,17.30
2023-05-19T22:56:06.686Z,17.26
2023-05-19T22:59:15.192Z,17.23
2023-05-19T23:02:23.689Z,17.22
2023-05-19T23:05:38.773Z,17.18
2023-05-19T23:08:41.274Z,17.20
2023-05-19T23:11:56.671Z,17.16
2023-05-19T23:14:58.629Z,17.11
2023-05-19T23:18:13.697Z,17.07
2023-05-19T23:21:15.325Z,17.04
2023-05-19T23:24:29.716Z,17.00
2023-05-19T23:27:37.708Z,16.97
2023-05-19T23:31:00.737Z,16.91
2023-05-19T23:34:15.734Z,16.90
2023-05-19T23:37:24.595Z,16.87
2023-05-19T23:40:33.475Z,16.81
2023-05-19T23:43:47.763Z,16.78
2023-05-19T23:46:55.770Z,16.75
2023-05-19T23:50:10.749Z,16.69
2023-05-19T23:53:12.458Z,16.63
2023-05-19T23:56:26.755Z,16.58
2023-05-19T23:59:34.709Z,16.56
